Time;durP1;ratioP1;P1;durP2;ratioP2;P2;SDS_P1;SDS_P2;PMS_P1;PMS_P2;Temp;Humidity;BMP_temperature;BMP_pressure;BME280_temperature;BME280_humidity;BME280_pressure;Samples;Min_cycle;Max_cycle;Signal;HPM_P1;HPM_P2
2023/07/30 00:00:26;;;;;;;11.07;2.90;;;;;;;;;;5054110;28;20064;-73
2023/07/30 00:02:52;;;;;;;10.18;2.40;;;;;;;;;;5057876;28;20473;-74
2023/07/30 00:05:18;;;;;;;8.73;3.08;;;;;;;;;;5052120;28;20078;-75
2023/07/30 00:07:44;;;;;;;7.38;2.40;;;;;;;;;;5058513;28;20379;-76
2023/07/30 00:10:10;;;;;;;12.32;3.28;;;;;;;;;;5056389;28;20327;-76
2023/07/30 00:12:36;;;;;;;9.25;3.00;;;;;;;;;;5064610;28;20392;-76
2023/07/30 00:15:03;;;;;;;11.63;2.30;;;;;;;;;;5054628;28;20052;-75
2023/07/30 00:17:29;;;;;;;11.68;3.10;;;;;;;;;;5054404;28;20039;-74
2023/07/30 00:19:55;;;;;;;8.57;3.13;;;;;;;;;;5067948;28;20499;-74
2023/07/30 00:22:21;;;;;;;6.55;2.08;;;;;;;;;;5055430;28;20649;-74
2023/07/30 00:24:47;;;;;;;11.15;3.15;;;;;;;;;;5048773;28;20236;-74
2023/07/30 00:27:13;;;;;;;5.05;2.38;;;;;;;;;;5056534;28;20040;-74
2023/07/30 00:29:39;;;;;;;7.13;3.33;;;;;;;;;;5063019;28;20028;-73
2023/07/30 00:32:06;;;;;;;6.78;2.47;;;;;;;;;;5053156;28;20028;-73
2023/07/30 00:34:32;;;;;;;5.70;2.38;;;;;;;;;;5052733;28;20074;-74
2023/07/30 00:36:58;;;;;;;6.65;2.42;;;;;;;;;;5059671;28;20542;-74
2023/07/30 00:39:24;;;;;;;5.53;2.97;;;;;;;;;;5061720;28;20059;-74
2023/07/30 00:41:50;;;;;;;10.45;2.78;;;;;;;;;;5058363;28;20040;-74
2023/07/30 00:44:16;;;;;;;5.45;2.72;;;;;;;;;;5058572;28;20021;-75
2023/07/30 00:46:43;;;;;;;12.13;2.65;;;;;;;;;;5060376;28;20042;-74
2023/07/30 00:49:09;;;;;;;7.40;2.55;;;;;;;;;;5064121;28;20457;-75
2023/07/30 00:51:35;;;;;;;10.15;3.10;;;;;;;;;;5047493;28;21522;-75
2023/07/30 00:54:01;;;;;;;8.82;2.90;;;;;;;;;;5054582;28;20495;-74
2023/07/30 00:56:27;;;;;;;10.70;2.83;;;;;;;;;;5061145;28;20260;-75
2023/07/30 00:58:53;;;;;;;7.13;2.35;;;;;;;;;;5053588;28;20033;-74
2023/07/30 01:01:20;;;;;;;6.05;2.20;;;;;;;;;;5063168;28;20139;-77
2023/07/30 01:03:46;;;;;;;5.80;2.60;;;;;;;;;;5064314;28;20029;-74
2023/07/30 01:06:12;;;;;;;9.50;2.40;;;;;;;;;;5055780;28;20556;-75
2023/07/30 01:08:38;;;;;;;6.50;3.35;;;;;;;;;;5059495;28;20082;-75
2023/07/30 01:11:05;;;;;;;4.88;2.58;;;;;;;;;;5062683;28;20035;-74
2023/07/30 01:13:32;;;;;;;10.68;3.00;;;;;;;;;;5061724;28;20036;-75
2023/07/30 01:15:58;;;;;;;5.97;2.10;;;;;;;;;;5054563;28;20571;-74
2023/07/30 01:18:25;;;;;;;6.97;2.80;;;;;;;;;;5057139;28;20029;-75
2023/07/30 01:20:54;;;;;;;7.63;2.58;;;;;;;;;;5054263;28;20103;-74
2023/07/30 01:23:20;;;;;;;5.35;2.67;;;;;;;;;;5063548;28;20135;-75
2023/07/30 01:25:49;;;;;;;4.95;2.33;;;;;;;;;;5058171;28;20488;-74
2023/07/30 01:28:18;;;;;;;6.82;3.25;;;;;;;;;;5061658;28;20029;-74
2023/07/30 01:30:45;;;;;;;6.05;2.08;;;;;;;;;;5057489;28;20025;-74
2023/07/30 01:33:11;;;;;;;7.55;2.63;;;;;;;;;;5058081;28;20025;-75
2023/07/30 01:35:38;;;;;;;7.68;3.00;;;;;;;;;;5047957;28;20106;-75
2023/07/30 01:38:05;;;;;;;6.97;2.72;;;;;;;;;;5062248;28;20504;-74
2023/07/30 01:40:32;;;;;;;8.88;2.80;;;;;;;;;;5055299;28;20031;-75
2023/07/30 01:42:58;;;;;;;5.38;2.25;;;;;;;;;;5060694;28;20040;-75
2023/07/30 01:45:24;;;;;;;5.43;2.50;;;;;;;;;;5056393;28;20101;-75
2023/07/30 01:47:50;;;;;;;6.88;3.10;;;;;;;;;;5053872;28;20112;-74
2023/07/30 01:50:19;;;;;;;6.43;2.85;;;;;;;;;;5055472;28;20055;-73
2023/07/30 01:52:46;;;;;;;7.15;2.63;;;;;;;;;;5061378;28;20033;-71
2023/07/30 01:55:12;;;;;;;3.80;2.20;;;;;;;;;;5051474;28;20025;-71
2023/07/30 01:57:38;;;;;;;8.40;2.67;;;;;;;;;;5060058;28;21849;-70
2023/07/30 02:00:08;;;;;;;8.30;3.08;;;;;;;;;;5058139;28;20111;-71
2023/07/30 02:02:35;;;;;;;3.45;2.25;;;;;;;;;;5068165;28;20071;-71
2023/07/30 02:05:02;;;;;;;3.15;1.98;;;;;;;;;;5056740;28;20021;-70
2023/07/30 02:07:28;;;;;;;7.38;2.15;;;;;;;;;;5063894;28;20098;-70
2023/07/30 02:09:54;;;;;;;7.85;2.85;;;;;;;;;;5053487;28;20753;-70
2023/07/30 02:12:20;;;;;;;8.75;2.63;;;;;;;;;;5066376;28;20032;-71
2023/07/30 02:14:46;;;;;;;9.25;2.67;;;;;;;;;;5056323;28;20595;-70
2023/07/30 02:17:13;;;;;;;5.53;2.33;;;;;;;;;;5050006;28;20067;-70
2023/07/30 02:19:39;;;;;;;5.88;2.70;;;;;;;;;;5052082;28;20021;-70
2023/07/30 02:22:05;;;;;;;6.25;2.38;;;;;;;;;;5053021;28;20374;-72
2023/07/30 02:24:34;;;;;;;7.72;2.67;;;;;;;;;;5064709;28;20411;-70
2023/07/30 02:27:00;;;;;;;6.45;3.88;;;;;;;;;;5055210;28;20021;-70
2023/07/30 02:29:26;;;;;;;6.38;2.88;;;;;;;;;;5071476;28;20024;-71
2023/07/30 02:31:52;;;;;;;8.38;2.67;;;;;;;;;;5053685;28;20028;-70
2023/07/30 02:34:18;;;;;;;7.22;2.38;;;;;;;;;;5057180;28;20053;-70
2023/07/30 02:36:44;;;;;;;5.60;2.35;;;;;;;;;;5050834;28;20039;-70
2023/07/30 02:39:10;;;;;;;5.25;2.17;;;;;;;;;;5058199;28;20035;-70
2023/07/30 02:41:36;;;;;;;6.95;2.40;;;;;;;;;;5050294;28;20021;-71
2023/07/30 02:44:03;;;;;;;9.07;2.40;;;;;;;;;;5046911;28;20025;-70
2023/07/30 02:46:29;;;;;;;9.77;3.35;;;;;;;;;;5053552;28;20025;-71
2023/07/30 02:48:55;;;;;;;6.97;3.13;;;;;;;;;;5066347;28;20021;-70
2023/07/30 02:51:21;;;;;;;6.45;2.83;;;;;;;;;;5051020;28;20110;-74
2023/07/30 02:53:47;;;;;;;6.93;2.40;;;;;;;;;;5057789;28;20060;-70
2023/07/30 02:56:13;;;;;;;5.57;2.17;;;;;;;;;;5060054;28;20115;-70
2023/07/30 02:58:39;;;;;;;5.85;2.30;;;;;;;;;;5054651;28;20029;-70
2023/07/30 03:01:09;;;;;;;8.95;4.00;;;;;;;;;;5059738;28;20422;-70
2023/07/30 03:03:35;;;;;;;9.25;2.55;;;;;;;;;;5054674;28;20405;-70
2023/07/30 03:06:01;;;;;;;4.95;2.58;;;;;;;;;;5058401;28;20078;-71
2023/07/30 03:08:27;;;;;;;8.15;2.40;;;;;;;;;;5055425;28;20025;-71
2023/07/30 03:10:53;;;;;;;7.40;2.70;;;;;;;;;;5054773;28;20499;-70
2023/07/30 03:13:21;;;;;;;6.15;2.53;;;;;;;;;;5054547;28;20364;-70
2023/07/30 03:15:47;;;;;;;7.22;2.10;;;;;;;;;;5057445;28;20111;-70
2023/07/30 03:18:13;;;;;;;7.50;2.50;;;;;;;;;;5051909;28;20040;-70
2023/07/30 03:20:39;;;;;;;5.18;2.22;;;;;;;;;;5062005;28;20020;-70
2023/07/30 03:23:05;;;;;;;6.32;2.10;;;;;;;;;;5049111;28;20033;-71
2023/07/30 03:25:32;;;;;;;5.32;2.25;;;;;;;;;;5055161;28;20621;-74
2023/07/30 03:27:58;;;;;;;11.32;2.20;;;;;;;;;;5061641;28;20680;-70
2023/07/30 03:30:24;;;;;;;4.70;2.40;;;;;;;;;;5058416;28;20063;-71
2023/07/30 03:32:50;;;;;;;6.07;2.50;;;;;;;;;;5055419;28;20057;-71
2023/07/30 03:35:16;;;;;;;9.23;2.42;;;;;;;;;;5052120;28;20688;-71
2023/07/30 03:37:42;;;;;;;4.10;2.17;;;;;;;;;;5060045;28;20599;-70
2023/07/30 03:40:08;;;;;;;5.47;2.22;;;;;;;;;;5057985;28;20032;-71
2023/07/30 03:42:34;;;;;;;4.95;1.80;;;;;;;;;;5049040;28;21096;-71
2023/07/30 03:45:00;;;;;;;5.85;2.22;;;;;;;;;;5050525;28;20140;-70
2023/07/30 03:47:27;;;;;;;5.90;2.08;;;;;;;;;;5051292;28;20029;-70
2023/07/30 03:49:53;;;;;;;4.82;2.60;;;;;;;;;;5054860;28;20115;-71
2023/07/30 03:52:19;;;;;;;6.20;2.10;;;;;;;;;;5062292;28;20032;-70
2023/07/30 03:54:48;;;;;;;7.00;2.33;;;;;;;;;;5052545;28;20056;-69
2023/07/30 03:57:14;;;;;;;9.88;2.50;;;;;;;;;;5069347;28;20032;-69
2023/07/30 03:59:40;;;;;;;6.90;3.45;;;;;;;;;;5053369;28;20032;-70
2023/07/30 04:02:06;;;;;;;6.35;2.45;;;;;;;;;;5061140;28;20025;-70
2023/07/30 04:04:32;;;;;;;7.50;2.30;;;;;;;;;;5055414;28;20029;-69
2023/07/30 04:06:58;;;;;;;11.93;3.08;;;;;;;;;;5055478;28;20100;-69
2023/07/30 04:09:24;;;;;;;9.68;2.60;;;;;;;;;;5045706;28;20416;-70
2023/07/30 04:11:52;;;;;;;4.82;2.10;;;;;;;;;;5047290;28;20039;-71
2023/07/30 04:14:18;;;;;;;9.07;2.20;;;;;;;;;;5055594;28;20032;-70
2023/07/30 04:16:46;;;;;;;6.97;1.83;;;;;;;;;;5053131;28;20028;-70
2023/07/30 04:19:13;;;;;;;4.55;2.38;;;;;;;;;;5063511;28;20033;-70
2023/07/30 04:21:39;;;;;;;9.32;2.20;;;;;;;;;;5048370;28;20538;-69
2023/07/30 04:24:06;;;;;;;8.48;2.58;;;;;;;;;;5052844;28;20021;-70
2023/07/30 04:26:32;;;;;;;10.00;2.65;;;;;;;;;;5066815;28;20021;-70
2023/07/30 04:28:58;;;;;;;5.07;2.42;;;;;;;;;;5051855;28;20021;-70
2023/07/30 04:31:24;;;;;;;5.10;2.22;;;;;;;;;;5069445;28;20507;-72
2023/07/30 04:33:50;;;;;;;8.30;2.50;;;;;;;;;;5064721;28;20137;-71
2023/07/30 04:36:16;;;;;;;3.70;2.55;;;;;;;;;;5074926;28;20036;-70
2023/07/30 04:38:43;;;;;;;9.57;2.22;;;;;;;;;;5059722;28;21611;-70
2023/07/30 04:41:09;;;;;;;7.50;2.53;;;;;;;;;;5062111;28;20052;-70
2023/07/30 04:43:35;;;;;;;6.63;2.53;;;;;;;;;;5064357;28;20035;-72
2023/07/30 04:46:01;;;;;;;7.97;2.30;;;;;;;;;;5057340;28;20025;-70
2023/07/30 04:48:27;;;;;;;5.13;2.88;;;;;;;;;;5057429;28;20052;-70
2023/07/30 04:50:53;;;;;;;8.43;3.70;;;;;;;;;;5056632;28;20033;-70
2023/07/30 04:53:20;;;;;;;6.45;2.25;;;;;;;;;;5063825;28;20547;-71
2023/07/30 04:55:46;;;;;;;5.45;2.60;;;;;;;;;;5080106;28;20032;-70
2023/07/30 04:58:12;;;;;;;5.75;2.25;;;;;;;;;;5060016;28;20477;-70
2023/07/30 05:00:38;;;;;;;6.60;2.35;;;;;;;;;;5058582;28;20380;-70
2023/07/30 05:03:04;;;;;;;3.97;2.03;;;;;;;;;;5074211;28;20073;-71
2023/07/30 05:05:31;;;;;;;3.45;1.73;;;;;;;;;;5066069;28;20024;-70
2023/07/30 05:07:57;;;;;;;6.28;2.10;;;;;;;;;;5054371;28;20445;-70
2023/07/30 05:10:23;;;;;;;5.80;2.33;;;;;;;;;;5061295;28;20025;-74
2023/07/30 05:12:49;;;;;;;5.10;2.00;;;;;;;;;;5067390;28;20480;-74
2023/07/30 05:15:18;;;;;;;5.20;1.88;;;;;;;;;;5052688;28;20086;-75
2023/07/30 05:17:44;;;;;;;3.70;2.03;;;;;;;;;;5054209;28;20044;-74
2023/07/30 05:20:11;;;;;;;4.93;2.08;;;;;;;;;;5053364;28;20560;-75
2023/07/30 05:22:37;;;;;;;3.05;1.70;;;;;;;;;;5058135;28;20032;-76
2023/07/30 05:25:03;;;;;;;2.47;2.17;;;;;;;;;;5067784;28;20021;-75
2023/07/30 05:27:31;;;;;;;3.00;2.28;;;;;;;;;;5050138;28;20457;-75
2023/07/30 05:29:57;;;;;;;9.25;2.22;;;;;;;;;;5057227;28;20365;-75
2023/07/30 05:32:23;;;;;;;4.70;1.83;;;;;;;;;;5053231;28;20055;-76
2023/07/30 05:34:49;;;;;;;4.85;2.15;;;;;;;;;;5055950;28;20041;-75
2023/07/30 05:37:18;;;;;;;4.30;2.20;;;;;;;;;;5059521;28;20036;-74
2023/07/30 05:39:44;;;;;;;6.28;2.20;;;;;;;;;;5063976;28;20037;-75
2023/07/30 05:42:10;;;;;;;7.30;2.00;;;;;;;;;;5059603;28;20669;-74
2023/07/30 05:44:36;;;;;;;3.22;2.25;;;;;;;;;;5065017;28;20017;-75
2023/07/30 05:47:02;;;;;;;4.75;2.05;;;;;;;;;;5064652;28;20032;-75
2023/07/30 05:49:28;;;;;;;2.80;1.80;;;;;;;;;;5052503;28;20064;-75
2023/07/30 05:51:55;;;;;;;6.10;2.67;;;;;;;;;;5067236;28;20048;-75
2023/07/30 05:54:21;;;;;;;3.47;1.90;;;;;;;;;;5051917;28;20100;-74
2023/07/30 05:56:47;;;;;;;6.00;2.30;;;;;;;;;;5067986;28;20040;-73
2023/07/30 05:59:14;;;;;;;2.97;1.75;;;;;;;;;;5050561;28;20120;-76
2023/07/30 06:01:40;;;;;;;3.50;1.70;;;;;;;;;;5061501;28;20649;-73
2023/07/30 06:04:06;;;;;;;8.30;2.58;;;;;;;;;;5063416;28;20017;-73
2023/07/30 06:06:32;;;;;;;1.83;1.65;;;;;;;;;;5069563;28;20742;-73
2023/07/30 06:08:58;;;;;;;3.97;1.70;;;;;;;;;;5055509;28;20787;-73
2023/07/30 06:11:25;;;;;;;7.47;2.50;;;;;;;;;;5055608;28;20032;-73
2023/07/30 06:13:51;;;;;;;3.58;1.90;;;;;;;;;;5060028;28;20383;-75
2023/07/30 06:16:20;;;;;;;4.20;2.00;;;;;;;;;;5052397;28;20128;-73
2023/07/30 06:18:48;;;;;;;3.90;2.05;;;;;;;;;;5080657;28;20025;-74
2023/07/30 06:21:14;;;;;;;8.93;1.90;;;;;;;;;;5056227;28;20059;-74
2023/07/30 06:23:41;;;;;;;3.58;1.70;;;;;;;;;;5057136;28;20029;-74
2023/07/30 06:26:07;;;;;;;3.58;1.67;;;;;;;;;;5058556;28;20043;-75
2023/07/30 06:28:33;;;;;;;4.22;1.90;;;;;;;;;;5052489;28;20029;-74
2023/07/30 06:31:02;;;;;;;4.60;1.65;;;;;;;;;;5055472;28;20028;-75
2023/07/30 06:33:29;;;;;;;7.20;2.20;;;;;;;;;;5059531;28;20032;-73
2023/07/30 06:35:55;;;;;;;5.13;3.05;;;;;;;;;;5050223;28;20043;-74
2023/07/30 06:38:21;;;;;;;5.70;2.08;;;;;;;;;;5053030;28;20104;-74
2023/07/30 06:40:47;;;;;;;6.50;1.98;;;;;;;;;;5055255;28;20424;-73
2023/07/30 06:43:15;;;;;;;3.28;2.13;;;;;;;;;;5051704;28;20497;-75
2023/07/30 06:45:41;;;;;;;3.47;1.85;;;;;;;;;;5053383;28;20098;-74
2023/07/30 06:48:07;;;;;;;3.78;1.65;;;;;;;;;;5052458;28;20090;-73
2023/07/30 06:50:33;;;;;;;4.75;2.03;;;;;;;;;;5060453;28;20032;-74
2023/07/30 06:52:59;;;;;;;2.97;2.00;;;;;;;;;;5059143;28;20040;-73
2023/07/30 06:55:26;;;;;;;2.75;1.70;;;;;;;;;;5055969;28;20086;-75
2023/07/30 06:57:52;;;;;;;2.55;2.00;;;;;;;;;;5053815;28;20056;-75
2023/07/30 07:00:21;;;;;;;4.20;2.30;;;;;;;;;;5056613;28;20035;-75
2023/07/30 07:02:48;;;;;;;5.70;1.85;;;;;;;;;;5062256;28;20028;-74
2023/07/30 07:05:14;;;;;;;6.35;1.73;;;;;;;;;;5056059;28;20685;-75
2023/07/30 07:07:41;;;;;;;3.08;1.70;;;;;;;;;;5058631;28;20035;-76
2023/07/30 07:10:07;;;;;;;2.97;2.10;;;;;;;;;;5056296;28;20112;-73
2023/07/30 07:12:33;;;;;;;4.65;2.50;;;;;;;;;;5054399;28;20089;-73
2023/07/30 07:15:01;;;;;;;4.78;1.80;;;;;;;;;;5055924;28;20032;-74
2023/07/30 07:17:27;;;;;;;5.80;2.10;;;;;;;;;;5055414;28;20424;-75
2023/07/30 07:19:54;;;;;;;3.92;1.70;;;;;;;;;;5062047;28;20024;-75
2023/07/30 07:22:20;;;;;;;5.45;1.70;;;;;;;;;;5062439;28;20400;-74
2023/07/30 07:24:46;;;;;;;4.30;1.90;;;;;;;;;;5052446;28;20161;-72
2023/07/30 07:27:12;;;;;;;2.78;1.70;;;;;;;;;;5059783;28;20035;-73
2023/07/30 07:29:39;;;;;;;4.07;2.00;;;;;;;;;;5057506;28;20052;-72
2023/07/30 07:32:05;;;;;;;7.75;2.42;;;;;;;;;;5064865;28;20036;-73
2023/07/30 07:34:31;;;;;;;4.78;2.08;;;;;;;;;;5062310;28;20051;-72
2023/07/30 07:36:57;;;;;;;3.50;1.60;;;;;;;;;;5057232;28;20071;-72
2023/07/30 07:39:23;;;;;;;6.03;2.00;;;;;;;;;;5062062;28;20032;-73
2023/07/30 07:41:50;;;;;;;5.22;2.00;;;;;;;;;;5060772;28;20032;-73
2023/07/30 07:44:16;;;;;;;2.50;1.70;;;;;;;;;;5062800;28;20032;-72
2023/07/30 07:46:42;;;;;;;3.53;1.90;;;;;;;;;;5052579;28;20028;-74
2023/07/30 07:49:08;;;;;;;6.15;1.73;;;;;;;;;;5063258;28;20029;-73
2023/07/30 07:51:37;;;;;;;3.05;1.90;;;;;;;;;;5061284;28;20383;-73
2023/07/30 07:54:07;;;;;;;3.70;1.80;;;;;;;;;;5058088;28;20036;-72
2023/07/30 07:56:33;;;;;;;2.22;1.70;;;;;;;;;;5086958;28;20086;-72
2023/07/30 07:58:59;;;;;;;3.80;1.60;;;;;;;;;;5065614;28;20047;-73
2023/07/30 08:01:25;;;;;;;3.20;1.60;;;;;;;;;;5066172;28;20124;-73
2023/07/30 08:03:51;;;;;;;2.80;1.77;;;;;;;;;;5061450;28;20025;-73
2023/07/30 08:06:18;;;;;;;2.63;1.58;;;;;;;;;;5061050;28;20405;-73
2023/07/30 08:08:44;;;;;;;3.97;1.90;;;;;;;;;;5062025;28;20024;-74
2023/07/30 08:11:10;;;;;;;4.95;2.08;;;;;;;;;;5074481;28;20031;-72
2023/07/30 08:13:43;;;;;;;7.32;2.38;;;;;;;;;;5056932;28;20092;-73
2023/07/30 08:16:09;;;;;;;2.42;1.60;;;;;;;;;;5057771;28;20061;-73
2023/07/30 08:18:36;;;;;;;2.00;1.73;;;;;;;;;;5071833;28;20246;-72
2023/07/30 08:21:02;;;;;;;3.90;1.63;;;;;;;;;;5059240;28;20025;-72
2023/07/30 08:23:28;;;;;;;5.03;1.65;;;;;;;;;;5057775;28;20112;-73
2023/07/30 08:25:54;;;;;;;2.45;1.50;;;;;;;;;;5061110;28;20103;-72
2023/07/30 08:28:20;;;;;;;3.05;1.70;;;;;;;;;;5059217;28;20036;-72
2023/07/30 08:30:47;;;;;;;2.50;1.90;;;;;;;;;;5057041;28;20024;-71
2023/07/30 08:33:13;;;;;;;4.25;1.85;;;;;;;;;;5060740;28;20042;-71
2023/07/30 08:35:40;;;;;;;3.45;1.88;;;;;;;;;;5066332;28;20041;-68
2023/07/30 08:38:06;;;;;;;2.03;1.73;;;;;;;;;;5061367;28;20025;-71
2023/07/30 08:40:32;;;;;;;4.38;1.83;;;;;;;;;;5069787;28;20433;-70
2023/07/30 08:42:59;;;;;;;4.15;2.17;;;;;;;;;;5063429;28;20074;-70
2023/07/30 08:45:25;;;;;;;1.40;1.30;;;;;;;;;;5061411;28;20017;-69
2023/07/30 08:47:51;;;;;;;1.92;1.40;;;;;;;;;;5060096;28;20443;-70
2023/07/30 08:50:17;;;;;;;2.88;1.58;;;;;;;;;;5060465;28;20028;-70
2023/07/30 08:52:43;;;;;;;2.22;1.50;;;;;;;;;;5062108;28;20064;-70
2023/07/30 08:55:11;;;;;;;2.45;1.40;;;;;;;;;;5052554;28;20029;-70
2023/07/30 08:57:38;;;;;;;5.55;1.50;;;;;;;;;;5077037;28;20049;-70
2023/07/30 09:00:08;;;;;;;2.75;1.63;;;;;;;;;;5077307;28;20033;-70
2023/07/30 09:02:38;;;;;;;1.63;1.45;;;;;;;;;;5068214;28;20043;-70
2023/07/30 09:05:05;;;;;;;5.00;1.73;;;;;;;;;;5059175;28;20363;-70
2023/07/30 09:07:31;;;;;;;3.35;1.58;;;;;;;;;;5058194;28;20082;-70
2023/07/30 09:09:57;;;;;;;3.20;1.80;;;;;;;;;;5054255;28;20035;-70
2023/07/30 09:12:27;;;;;;;2.28;2.00;;;;;;;;;;5070011;28;20032;-71
2023/07/30 09:14:53;;;;;;;4.00;2.00;;;;;;;;;;5066033;28;20610;-70
2023/07/30 09:17:19;;;;;;;2.67;1.60;;;;;;;;;;5062787;28;20028;-71
2023/07/30 09:19:50;;;;;;;2.78;1.80;;;;;;;;;;5062965;28;20032;-70
2023/07/30 09:22:29;;;;;;;6.13;1.80;;;;;;;;;;5050762;28;20123;-70
2023/07/30 09:24:56;;;;;;;3.80;1.98;;;;;;;;;;5057217;28;20399;-70
2023/07/30 09:27:25;;;;;;;2.38;2.17;;;;;;;;;;5061299;28;20633;-71
2023/07/30 09:29:52;;;;;;;3.72;2.00;;;;;;;;;;5066394;28;20103;-70
2023/07/30 09:32:18;;;;;;;3.47;1.90;;;;;;;;;;5066685;28;20056;-70
2023/07/30 09:34:48;;;;;;;4.50;2.25;;;;;;;;;;5065720;28;20412;-72
2023/07/30 09:37:15;;;;;;;6.95;2.28;;;;;;;;;;5072408;28;20392;-70
2023/07/30 09:39:41;;;;;;;6.38;2.40;;;;;;;;;;5072594;28;20032;-70
2023/07/30 09:42:08;;;;;;;7.32;2.17;;;;;;;;;;5065082;28;20025;-70
2023/07/30 09:44:34;;;;;;;5.43;3.03;;;;;;;;;;5066865;28;20021;-70
2023/07/30 09:47:05;;;;;;;7.90;2.20;;;;;;;;;;5062304;28;20025;-70
2023/07/30 09:49:31;;;;;;;5.85;2.10;;;;;;;;;;5054141;28;20024;-71
2023/07/30 09:51:58;;;;;;;7.18;2.65;;;;;;;;;;5060891;28;20107;-70
2023/07/30 09:54:24;;;;;;;3.88;2.30;;;;;;;;;;5066468;28;20592;-71
2023/07/30 09:56:50;;;;;;;3.25;2.20;;;;;;;;;;5063771;28;20029;-70
2023/07/30 09:59:17;;;;;;;3.63;2.10;;;;;;;;;;5073268;28;20033;-69
2023/07/30 10:01:46;;;;;;;6.30;2.58;;;;;;;;;;5066522;28;20032;-70
2023/07/30 10:04:12;;;;;;;6.55;2.13;;;;;;;;;;5059382;28;20040;-69
2023/07/30 10:06:41;;;;;;;7.55;2.40;;;;;;;;;;5060830;28;20032;-69
2023/07/30 10:09:08;;;;;;;5.47;3.13;;;;;;;;;;5063738;28;20028;-72
2023/07/30 10:11:35;;;;;;;4.28;2.17;;;;;;;;;;5059244;28;20127;-73
2023/07/30 10:14:01;;;;;;;4.25;2.47;;;;;;;;;;5054342;28;20480;-71
2023/07/30 10:16:28;;;;;;;5.20;2.60;;;;;;;;;;5056559;28;20036;-70
2023/07/30 10:18:58;;;;;;;3.10;2.40;;;;;;;;;;5033317;28;20040;-71
2023/07/30 10:21:25;;;;;;;3.20;2.60;;;;;;;;;;5047814;28;20490;-72
2023/07/30 10:24:01;;;;;;;7.30;2.92;;;;;;;;;;5046283;28;20029;-72
2023/07/30 10:26:28;;;;;;;9.27;2.88;;;;;;;;;;5055824;28;20040;-72
2023/07/30 10:29:11;;;;;;;5.07;2.80;;;;;;;;;;5053783;28;20791;-72
2023/07/30 10:31:41;;;;;;;5.70;2.65;;;;;;;;;;5050222;28;20028;-72
2023/07/30 10:34:12;;;;;;;6.22;2.75;;;;;;;;;;5057541;28;20049;-72
2023/07/30 10:36:46;;;;;;;3.47;2.40;;;;;;;;;;5055504;28;20059;-72
2023/07/30 10:39:16;;;;;;;7.25;2.45;;;;;;;;;;5051779;28;20033;-72
2023/07/30 10:41:53;;;;;;;5.80;2.70;;;;;;;;;;5069058;28;20033;-72
2023/07/30 10:44:23;;;;;;;4.65;2.40;;;;;;;;;;5052253;28;20024;-72
2023/07/30 10:46:49;;;;;;;4.15;2.20;;;;;;;;;;5059098;28;20032;-72
2023/07/30 10:49:15;;;;;;;5.63;3.38;;;;;;;;;;5051166;28;20043;-72
2023/07/30 10:51:41;;;;;;;5.15;2.88;;;;;;;;;;5055840;28;20515;-73
2023/07/30 10:54:08;;;;;;;5.47;2.60;;;;;;;;;;5062316;28;20036;-72
2023/07/30 10:56:36;;;;;;;5.80;2.85;;;;;;;;;;5052729;28;20032;-72
2023/07/30 10:59:04;;;;;;;5.75;3.10;;;;;;;;;;5054893;28;20495;-72
2023/07/30 11:01:30;;;;;;;6.55;3.30;;;;;;;;;;5055684;28;20029;-72
2023/07/30 11:03:57;;;;;;;6.35;3.45;;;;;;;;;;5049949;28;20075;-71
2023/07/30 11:06:24;;;;;;;4.43;2.67;;;;;;;;;;5053072;28;20078;-70
2023/07/30 11:08:50;;;;;;;4.97;2.53;;;;;;;;;;5050230;28;20633;-70
2023/07/30 11:11:16;;;;;;;3.80;2.40;;;;;;;;;;5053969;28;20538;-72
2023/07/30 11:13:51;;;;;;;7.05;2.50;;;;;;;;;;5052350;28;20078;-73
2023/07/30 11:16:17;;;;;;;;;;;;;;;;;;5049705;28;20264;-72
2023/07/30 11:18:44;;;;;;;6.50;2.70;;;;;;;;;;5049462;28;19913;-73
2023/07/30 11:21:11;;;;;;;4.03;2.65;;;;;;;;;;5049356;28;20439;-72
2023/07/30 11:23:38;;;;;;;4.10;2.67;;;;;;;;;;5049085;28;20109;-73
2023/07/30 11:26:05;;;;;;;5.90;2.45;;;;;;;;;;5048234;28;20119;-72
2023/07/30 11:28:32;;;;;;;5.70;2.33;;;;;;;;;;5054256;28;20027;-71
2023/07/30 11:31:00;;;;;;;7.63;4.20;;;;;;;;;;5063378;28;20035;-72
2023/07/30 11:33:27;;;;;;;4.53;2.55;;;;;;;;;;5057209;28;20052;-71
2023/07/30 11:35:54;;;;;;;6.05;3.28;;;;;;;;;;5063646;28;20043;-71
2023/07/30 11:38:20;;;;;;;5.90;2.78;;;;;;;;;;5065988;28;20286;-72
2023/07/30 11:40:47;;;;;;;6.00;2.85;;;;;;;;;;5052588;28;20044;-72
2023/07/30 11:43:14;;;;;;;4.97;2.60;;;;;;;;;;5049498;28;20044;-71
2023/07/30 11:45:40;;;;;;;4.22;2.55;;;;;;;;;;5052003;28;20274;-74
2023/07/30 11:48:10;;;;;;;3.65;2.38;;;;;;;;;;5053923;28;20028;-73
2023/07/30 11:50:52;;;;;;;5.35;2.33;;;;;;;;;;5055924;28;20047;-73
2023/07/30 11:53:19;;;;;;;3.15;2.67;;;;;;;;;;5051929;28;20114;-72
2023/07/30 11:55:45;;;;;;;5.25;2.85;;;;;;;;;;5055597;28;20032;-72
2023/07/30 11:58:12;;;;;;;4.35;2.28;;;;;;;;;;5054311;28;20036;-73
2023/07/30 12:00:43;;;;;;;5.95;2.40;;;;;;;;;;5054596;28;20056;-72
2023/07/30 12:03:12;;;;;;;7.95;3.33;;;;;;;;;;5054436;28;20050;-72
2023/07/30 12:05:39;;;;;;;5.82;2.70;;;;;;;;;;5057155;28;20021;-72
2023/07/30 12:08:07;;;;;;;5.28;2.35;;;;;;;;;;5052613;28;20444;-72
2023/07/30 12:10:46;;;;;;;3.28;2.72;;;;;;;;;;5050388;28;20042;-72
2023/07/30 12:13:16;;;;;;;4.60;2.55;;;;;;;;;;5068643;28;20036;-73
2023/07/30 12:16:03;;;;;;;5.63;3.03;;;;;;;;;;5049865;28;20035;-73
2023/07/30 12:18:29;;;;;;;5.00;2.40;;;;;;;;;;5049984;28;20071;-72
2023/07/30 12:20:56;;;;;;;2.85;2.20;;;;;;;;;;5050529;28;20063;-72
2023/07/30 12:23:22;;;;;;;4.35;2.47;;;;;;;;;;5040739;28;21349;-72
2023/07/30 12:25:48;;;;;;;6.40;2.50;;;;;;;;;;5045505;28;20027;-72
2023/07/30 12:28:14;;;;;;;4.38;2.78;;;;;;;;;;5048434;28;20028;-72
2023/07/30 12:30:41;;;;;;;4.40;2.63;;;;;;;;;;5059795;28;20032;-72
2023/07/30 12:33:07;;;;;;;3.10;2.40;;;;;;;;;;5052222;28;20033;-73
2023/07/30 12:35:33;;;;;;;6.35;2.97;;;;;;;;;;5050802;28;20434;-72
2023/07/30 12:38:00;;;;;;;6.35;3.05;;;;;;;;;;5055318;28;20044;-72
2023/07/30 12:40:29;;;;;;;4.40;2.40;;;;;;;;;;5053502;28;20568;-72
2023/07/30 12:42:55;;;;;;;3.45;2.65;;;;;;;;;;5054983;28;20221;-73
2023/07/30 12:45:21;;;;;;;2.75;2.50;;;;;;;;;;5057492;28;20035;-73
2023/07/30 12:47:47;;;;;;;3.50;2.25;;;;;;;;;;5054190;28;20176;-72
2023/07/30 12:50:14;;;;;;;5.47;2.42;;;;;;;;;;5058914;28;20020;-72
2023/07/30 12:52:40;;;;;;;2.97;2.50;;;;;;;;;;5046637;28;20032;-72
2023/07/30 12:55:07;;;;;;;4.03;2.35;;;;;;;;;;5051389;28;20033;-73
2023/07/30 12:57:33;;;;;;;4.00;2.45;;;;;;;;;;5049099;28;20028;-73
2023/07/30 12:59:59;;;;;;;4.30;2.50;;;;;;;;;;5052146;28;20035;-72
2023/07/30 13:02:25;;;;;;;5.05;3.20;;;;;;;;;;5046209;28;21133;-72
2023/07/30 13:04:51;;;;;;;3.92;2.15;;;;;;;;;;5061440;28;20024;-72
2023/07/30 13:07:17;;;;;;;4.80;2.88;;;;;;;;;;5053885;28;20118;-72
2023/07/30 13:09:43;;;;;;;3.25;2.22;;;;;;;;;;5062050;28;20409;-72
2023/07/30 13:12:09;;;;;;;2.67;2.15;;;;;;;;;;5055860;28;20103;-72
2023/07/30 13:14:36;;;;;;;4.43;2.20;;;;;;;;;;5050466;28;20148;-72
2023/07/30 13:17:02;;;;;;;3.95;2.20;;;;;;;;;;5055877;28;20032;-70
2023/07/30 13:19:29;;;;;;;3.92;2.30;;;;;;;;;;5048633;28;20322;-70
2023/07/30 13:21:56;;;;;;;3.28;2.20;;;;;;;;;;5050936;28;20455;-71
2023/07/30 13:24:22;;;;;;;3.88;2.30;;;;;;;;;;5062200;28;20077;-70
2023/07/30 13:26:48;;;;;;;3.47;3.17;;;;;;;;;;5051982;28;20028;-69
2023/07/30 13:29:14;;;;;;;6.15;2.72;;;;;;;;;;5055170;28;20096;-70
2023/07/30 13:31:40;;;;;;;2.67;2.30;;;;;;;;;;5057686;28;20700;-70
2023/07/30 13:34:06;;;;;;;3.47;2.35;;;;;;;;;;5054211;28;20108;-71
2023/07/30 13:36:33;;;;;;;2.35;2.05;;;;;;;;;;5057400;28;20150;-71
2023/07/30 13:38:59;;;;;;;3.38;2.10;;;;;;;;;;5054447;28;20416;-71
2023/07/30 13:41:25;;;;;;;3.22;2.30;;;;;;;;;;5051236;28;20548;-70
2023/07/30 13:43:51;;;;;;;3.03;2.17;;;;;;;;;;5056330;28;20028;-71
2023/07/30 13:46:17;;;;;;;2.30;2.10;;;;;;;;;;5053259;28;20028;-70
2023/07/30 13:48:43;;;;;;;2.10;1.90;;;;;;;;;;5053415;28;20028;-71
2023/07/30 13:51:12;;;;;;;2.95;1.98;;;;;;;;;;5054228;28;20024;-70
2023/07/30 13:53:41;;;;;;;4.57;1.98;;;;;;;;;;5054609;28;20056;-70
2023/07/30 13:56:07;;;;;;;2.70;2.13;;;;;;;;;;5055439;28;20054;-71
2023/07/30 13:58:33;;;;;;;3.88;3.08;;;;;;;;;;5059480;28;20032;-68
2023/07/30 14:00:59;;;;;;;2.95;2.30;;;;;;;;;;5059585;28;20442;-68
2023/07/30 14:03:25;;;;;;;1.77;1.67;;;;;;;;;;5052969;28;20043;-72
2023/07/30 14:05:51;;;;;;;2.42;2.22;;;;;;;;;;5056326;28;20492;-72
2023/07/30 14:08:17;;;;;;;2.67;2.10;;;;;;;;;;5053578;28;20056;-71
2023/07/30 14:10:47;;;;;;;2.08;1.88;;;;;;;;;;5053230;28;20105;-72
2023/07/30 14:13:13;;;;;;;2.70;2.25;;;;;;;;;;5051105;28;20059;-71
2023/07/30 14:15:39;;;;;;;3.20;2.17;;;;;;;;;;5055016;28;20597;-72
2023/07/30 14:18:05;;;;;;;2.42;2.05;;;;;;;;;;5051919;28;20163;-72
2023/07/30 14:20:31;;;;;;;2.67;2.10;;;;;;;;;;5053719;28;20753;-72
2023/07/30 14:23:01;;;;;;;2.55;2.05;;;;;;;;;;5053422;28;20085;-71
2023/07/30 14:25:27;;;;;;;3.30;2.40;;;;;;;;;;5050910;28;20381;-71
2023/07/30 14:27:53;;;;;;;3.95;2.33;;;;;;;;;;5051086;28;20115;-72
2023/07/30 14:30:19;;;;;;;3.42;2.90;;;;;;;;;;5053059;28;20048;-72
2023/07/30 14:32:45;;;;;;;3.22;2.53;;;;;;;;;;5054309;28;20037;-72
2023/07/30 14:35:11;;;;;;;3.58;2.25;;;;;;;;;;5051595;28;20600;-72
2023/07/30 14:37:38;;;;;;;2.50;2.30;;;;;;;;;;5058524;28;20078;-71
2023/07/30 14:40:04;;;;;;;3.05;2.60;;;;;;;;;;5049610;28;20599;-72